Time,TemperatureF,DewpointF,PressureIn,WindDirection,WindDirectionDegrees,WindSpeedMPH,WindSpeedGustMPH,Humidity,HourlyPrecipIn,Conditions,Clouds,dailyrainin,SoftwareType,DateUTC
2013-03-23 00:07:00,68.5,67.9,29.88,NNE,22,0.0,-999.0,98,-99.99,,,0.00,Acu-Link.com,2013-03-23 10:07:00,
2013-03-23 00:22:00,68.5,67.9,29.89,NNE,22,0.0,-999.0,98,-99.99,,,0.00,Acu-Link.com,2013-03-23 10:22:00,
2013-03-23 00:37:00,68.5,67.9,29.88,NNE,22,0.0,-999.0,98,-99.99,,,0.00,Acu-Link.com,2013-03-23 10:37:00,
2013-03-23 07:30:00,69.3,64.6,29.89,North,0,2.7,-999.0,85,-99.99,,,0.00,Acu-Link.com,2013-03-23 17:30:00,
2013-03-23 07:45:00,70.0,64.6,29.89,NE,45,3.7,-999.0,83,-99.99,,,0.00,Acu-Link.com,2013-03-23 17:45:00,
2013-03-23 08:00:00,70.5,64.4,29.91,NE,45,1.1,-999.0,81,-99.99,,,0.00,Acu-Link.com,2013-03-23 18:00:00,
2013-03-23 08:15:00,70.9,63.3,29.89,North,0,4.2,-999.0,77,-99.99,,,0.00,Acu-Link.com,2013-03-23 18:15:00,
2013-03-23 09:01:00,73.0,64.6,29.90,SW,225,2.2,-999.0,75,-99.99,,,0.00,Acu-Link.com,2013-03-23 19:01:00,
2013-03-23 09:17:00,73.0,65.0,29.92,SSW,202,4.2,-999.0,76,-99.99,,,0.00,Acu-Link.com,2013-03-23 19:17:00,
2013-03-23 09:32:00,74.1,64.5,29.90,ENE,67,1.7,-999.0,72,-99.99,,,0.00,Acu-Link.com,2013-03-23 19:32:00,
2013-03-23 09:47:00,74.8,63.9,29.91,NNE,22,3.7,-999.0,69,-99.99,,,0.00,Acu-Link.com,2013-03-23 19:47:00,
2013-03-23 10:02:00,75.4,64.9,29.92,North,0,2.7,-999.0,70,-99.99,,,0.00,Acu-Link.com,2013-03-23 20:02:00,
2013-03-23 10:18:00,76.5,66.0,29.92,NNW,337,2.7,-999.0,70,-99.99,,,0.00,Acu-Link.com,2013-03-23 20:18:00,
2013-03-23 10:33:00,75.7,66.4,29.91,North,0,3.2,-999.0,73,-99.99,,,0.00,Acu-Link.com,2013-03-23 20:33:00,
2013-03-23 10:48:00,74.7,65.8,29.90,NNW,337,5.3,-999.0,74,-99.99,,,0.00,Acu-Link.com,2013-03-23 20:48:00,
2013-03-23 11:03:00,74.5,66.0,29.90,NNW,337,2.7,-999.0,75,-99.99,,,0.00,Acu-Link.com,2013-03-23 21:03:00,
2013-03-23 11:19:00,75.4,66.1,29.89,NNE,22,4.2,-999.0,73,-99.99,,,0.00,Acu-Link.com,2013-03-23 21:19:00,
2013-03-23 11:34:00,76.8,66.7,29.91,NE,45,2.2,-999.0,71,-99.99,,,0.00,Acu-Link.com,2013-03-23 21:34:00,
2013-03-23 11:49:00,75.6,66.3,29.88,ENE,67,2.2,-999.0,73,-99.99,,,0.00,Acu-Link.com,2013-03-23 21:49:00,
2013-03-23 12:04:00,73.8,65.7,29.88,North,0,5.3,-999.0,76,-99.99,,,0.00,Acu-Link.com,2013-03-23 22:04:00,
2013-03-23 15:16:00,72.7,64.7,29.81,North,0,1.7,-999.0,76,-99.99,,,0.00,Acu-Link.com,2013-03-24 01:16:00,
2013-03-23 15:31:00,73.8,64.6,29.81,South,180,2.2,-999.0,73,-99.99,,,0.00,Acu-Link.com,2013-03-24 01:31:00,
2013-03-23 15:46:00,74.1,64.5,29.81,NNE,22,4.7,-999.0,72,-99.99,,,0.00,Acu-Link.com,2013-03-24 01:46:00,
2013-03-23 16:17:00,74.1,65.3,29.80,North,0,5.8,-999.0,74,-99.99,,,0.00,Acu-Link.com,2013-03-24 02:17:00,
2013-03-23 16:32:00,74.5,65.3,29.82,NNE,22,5.3,-999.0,73,-99.99,,,0.00,Acu-Link.com,2013-03-24 02:32:00,
2013-03-23 16:48:00,74.5,65.3,29.84,NNE,22,4.2,-999.0,73,-99.99,,,0.00,Acu-Link.com,2013-03-24 02:48:00,
2013-03-23 17:03:00,73.2,64.8,29.82,NW,315,2.7,-999.0,75,-99.99,,,0.00,Acu-Link.com,2013-03-24 03:03:00,
2013-03-23 17:18:00,73.0,65.4,29.84,SSW,202,1.7,-999.0,77,-99.99,,,0.00,Acu-Link.com,2013-03-24 03:18:00,
2013-03-23 17:33:00,73.0,65.0,29.85,SSE,157,0.0,-999.0,76,-99.99,,,0.00,Acu-Link.com,2013-03-24 03:33:00,
2013-03-23 17:48:00,72.7,65.1,29.84,SSW,202,0.0,-999.0,77,-99.99,,,0.00,Acu-Link.com,2013-03-24 03:48:00,
2013-03-23 18:03:00,72.0,64.8,29.86,SW,225,4.7,-999.0,78,-99.99,,,0.00,Acu-Link.com,2013-03-24 04:03:00,
2013-03-23 18:19:00,71.8,64.9,29.86,NW,315,1.1,-999.0,79,-99.99,,,0.00,Acu-Link.com,2013-03-24 04:19:00,
2013-03-23 18:34:00,71.4,64.2,29.85,SSW,202,0.0,-999.0,78,-99.99,,,0.00,Acu-Link.com,2013-03-24 04:34:00,
2013-03-23 18:49:00,71.1,63.9,29.85,SE,135,2.7,-999.0,78,-99.99,,,0.00,Acu-Link.com,2013-03-24 04:49:00,
2013-03-23 19:04:00,70.9,63.3,29.88,NNW,337,2.2,-999.0,77,-99.99,,,0.00,Acu-Link.com,2013-03-24 05:04:00,
2013-03-23 19:19:00,70.7,63.5,29.87,North,0,6.3,-999.0,78,-99.99,,,0.00,Acu-Link.com,2013-03-24 05:19:00,
2013-03-23 19:34:00,70.7,63.9,29.88,SSE,157,1.7,-999.0,79,-99.99,,,0.00,Acu-Link.com,2013-03-24 05:34:00,
2013-03-23 21:42:00,70.3,64.2,29.93,South,180,0.0,-999.0,81,-99.99,,,0.00,Acu-Link.com,2013-03-24 07:42:00,
2013-03-23 21:57:00,70.2,64.1,29.92,NE,45,2.7,-999.0,81,-99.99,,,0.00,Acu-Link.com,2013-03-24 07:57:00,
2013-03-23 22:12:00,70.2,64.1,29.92,South,180,0.0,-999.0,81,-99.99,,,0.00,Acu-Link.com,2013-03-24 08:12:00,
2013-03-23 22:28:00,70.2,64.1,29.93,NNW,337,4.7,-999.0,81,-99.99,,,0.00,Acu-Link.com,2013-03-24 08:28:00,
2013-03-23 22:43:00,70.2,64.1,29.91,NE,45,0.0,-999.0,81,-99.99,,,0.00,Acu-Link.com,2013-03-24 08:43:00,
2013-03-23 22:58:00,70.0,64.2,29.91,SSE,157,1.7,-999.0,82,-99.99,,,0.00,Acu-Link.com,2013-03-24 08:58:00,
2013-03-23 23:13:00,69.8,64.0,29.92,ENE,67,0.0,-999.0,82,-99.99,,,0.00,Acu-Link.com,2013-03-24 09:13:00,
2013-03-23 23:28:00,69.8,64.0,29.90,SSE,157,1.1,-999.0,82,-99.99,,,0.00,Acu-Link.com,2013-03-24 09:28:00,
2013-03-23 23:43:00,70.0,63.9,29.90,SSW,202,1.7,-999.0,81,-99.99,,,0.00,Acu-Link.com,2013-03-24 09:43:00,